createdAt,value
2022-09-26T00:02:11.526Z,1.70
2022-09-26T00:04:41.820Z,2.03
2022-09-26T00:07:08.368Z,1.90
2022-09-26T00:09:35.110Z,1.85
2022-09-26T00:12:03.490Z,2.03
2022-09-26T00:14:33.068Z,2.13
2022-09-26T00:17:05.667Z,2.88
2022-09-26T00:19:34.790Z,2.35
2022-09-26T00:22:09.085Z,1.67
2022-09-26T00:24:39.221Z,1.70
2022-09-26T00:27:05.815Z,2.60
2022-09-26T00:29:35.027Z,2.13
2022-09-26T00:32:04.201Z,2.00
2022-09-26T00:34:30.787Z,2.15
2022-09-26T00:36:57.555Z,2.17
2022-09-26T00:39:28.198Z,2.22
2022-09-26T00:41:54.900Z,2.50
2022-09-26T00:44:45.508Z,2.88
2022-09-26T00:47:29.126Z,2.17
2022-09-26T00:50:06.742Z,2.30
2022-09-26T00:52:42.096Z,2.17
2022-09-26T00:55:13.384Z,2.22
2022-09-26T00:57:59.202Z,2.15
2022-09-26T01:00:26.554Z,1.92
2022-09-26T01:02:59.752Z,2.42
2022-09-26T01:05:27.226Z,2.50
2022-09-26T01:07:56.118Z,2.42
2022-09-26T01:10:23.826Z,1.98
2022-09-26T01:12:54.706Z,2.67
2022-09-26T01:15:24.531Z,2.50
2022-09-26T01:17:51.272Z,2.22
2022-09-26T01:20:49.573Z,2.50
2022-09-26T01:23:55.379Z,2.50
2022-09-26T01:26:48.458Z,2.58
2022-09-26T01:29:27.273Z,2.67
2022-09-26T01:32:45.440Z,3.00
2022-09-26T01:35:19.159Z,2.72
2022-09-26T01:38:04.818Z,2.75
2022-09-26T01:40:46.346Z,3.17
2022-09-26T01:43:22.546Z,2.42
2022-09-26T01:46:04.047Z,2.58
2022-09-26T01:49:06.301Z,2.22
2022-09-26T01:51:55.533Z,2.58
2022-09-26T01:54:29.884Z,2.28
2022-09-26T02:00:01.296Z,2.45
2022-09-26T02:02:35.230Z,2.45
2022-09-26T02:05:26.993Z,2.80
2022-09-26T02:08:04.402Z,2.92
2022-09-26T02:10:37.755Z,2.58
2022-09-26T02:13:10.681Z,2.83
2022-09-26T02:15:41.577Z,2.42
2022-09-26T02:18:22.052Z,2.80
2022-09-26T02:21:01.944Z,3.25
2022-09-26T02:23:33.986Z,2.90
2022-09-26T02:26:05.255Z,3.15
2022-09-26T02:28:32.068Z,2.70
2022-09-26T02:31:04.204Z,2.83
2022-09-26T02:33:32.474Z,2.55
2022-09-26T02:36:03.094Z,3.15
2022-09-26T02:38:32.185Z,2.97
2022-09-26T02:41:44.132Z,2.88
2022-09-26T02:44:31.726Z,2.40
2022-09-26T02:47:25.719Z,3.40
2022-09-26T02:50:41.449Z,2.60
2022-09-26T02:53:20.607Z,2.30
2022-09-26T02:56:10.864Z,2.90
2022-09-26T02:58:50.400Z,2.53
2022-09-26T03:01:32.376Z,3.25
2022-09-26T03:04:14.031Z,2.97
2022-09-26T03:06:44.901Z,2.92
2022-09-26T03:09:14.129Z,2.80
2022-09-26T03:11:42.337Z,2.92
2022-09-26T03:14:10.948Z,2.72
2022-09-26T03:16:41.444Z,2.78
2022-09-26T03:19:41.430Z,3.08
2022-09-26T03:22:09.112Z,2.92
2022-09-26T03:24:36.724Z,2.75
2022-09-26T03:27:06.170Z,2.53
2022-09-26T03:29:35.363Z,2.47
2022-09-26T03:32:04.011Z,2.60
2022-09-26T03:34:33.575Z,2.75
2022-09-26T03:37:01.021Z,3.35
2022-09-26T03:39:30.098Z,3.72
2022-09-26T03:42:03.361Z,2.95
2022-09-26T03:44:33.071Z,2.55
2022-09-26T03:47:12.166Z,2.47
2022-09-26T03:49:41.190Z,3.10
2022-09-26T03:52:12.071Z,2.78
2022-09-26T03:54:40.509Z,2.72
2022-09-26T03:57:12.136Z,2.80
2022-09-26T03:59:45.520Z,2.78
2022-09-26T04:02:15.349Z,2.13
2022-09-26T04:04:46.894Z,2.72
2022-09-26T04:07:15.005Z,2.60
2022-09-26T04:09:41.628Z,2.75
2022-09-26T04:12:08.468Z,2.65
2022-09-26T04:14:44.482Z,2.58
2022-09-26T04:17:12.389Z,2.72
2022-09-26T04:19:42.879Z,2.35
2022-09-26T04:22:14.293Z,2.33
2022-09-26T04:24:41.034Z,2.92
2022-09-26T04:27:07.853Z,3.17
2022-09-26T04:29:37.566Z,1.98
2022-09-26T04:32:20.777Z,2.42
2022-09-26T04:35:28.267Z,2.40
2022-09-26T04:37:54.980Z,2.92
2022-09-26T04:40:21.758Z,2.40
2022-09-26T04:43:08.619Z,2.58
2022-09-26T04:45:35.481Z,3.50
2022-09-26T04:48:04.759Z,5.78
2022-09-26T04:51:11.920Z,5.40
2022-09-26T04:53:39.583Z,5.85
2022-09-26T04:56:37.879Z,6.50
2022-09-26T04:59:14.562Z,7.50
2022-09-26T05:01:57.875Z,22.50
2022-09-26T05:04:36.891Z,22.65
2022-09-26T05:07:03.857Z,19.55
2022-09-26T05:09:36.343Z,12.00
2022-09-26T05:12:16.503Z,9.32
2022-09-26T05:14:47.198Z,4.55
2022-09-26T05:17:20.834Z,4.03
2022-09-26T05:19:49.764Z,3.10
2022-09-26T05:22:38.802Z,2.85
2022-09-26T05:25:24.406Z,3.20
2022-09-26T05:27:53.868Z,3.70
2022-09-26T05:30:20.821Z,3.83
2022-09-26T05:32:50.391Z,4.28
2022-09-26T05:35:20.618Z,3.42
2022-09-26T05:37:47.238Z,3.70
2022-09-26T05:40:34.860Z,2.97
2022-09-26T05:43:02.620Z,3.88
2022-09-26T05:45:30.445Z,3.13
2022-09-26T05:47:58.160Z,2.97
2022-09-26T05:50:32.931Z,2.90
2022-09-26T05:53:00.714Z,2.92
2022-09-26T05:55:29.071Z,3.33
2022-09-26T05:58:14.800Z,3.38
2022-09-26T06:01:15.641Z,2.15
2022-09-26T06:06:57.459Z,2.70
2022-09-26T06:09:28.323Z,2.80
2022-09-26T06:11:55.276Z,1.92
2022-09-26T06:14:29.404Z,2.22
2022-09-26T06:16:58.209Z,2.20
2022-09-26T06:19:25.992Z,2.60
2022-09-26T06:21:52.671Z,2.33
2022-09-26T06:24:19.754Z,2.42
2022-09-26T06:26:51.740Z,2.47
2022-09-26T06:29:23.795Z,2.45
2022-09-26T06:31:53.171Z,2.15
2022-09-26T06:34:26.389Z,2.53
2022-09-26T06:37:18.938Z,2.40
2022-09-26T06:39:45.621Z,2.05
2022-09-26T06:42:14.424Z,1.70
2022-09-26T06:45:13.095Z,2.05
2022-09-26T06:48:04.172Z,2.10
2022-09-26T06:50:57.535Z,2.08
2022-09-26T06:53:37.579Z,2.30
2022-09-26T06:56:05.274Z,1.77
2022-09-26T06:58:31.977Z,2.10
2022-09-26T07:03:45.733Z,2.70
2022-09-26T07:06:36.570Z,2.28
2022-09-26T07:09:08.594Z,2.50
2022-09-26T07:12:15.239Z,1.92
2022-09-26T07:14:47.894Z,1.95
2022-09-26T07:17:28.958Z,2.00
2022-09-26T07:20:19.561Z,2.13
2022-09-26T07:22:55.395Z,1.58
2022-09-26T07:25:22.239Z,1.85
2022-09-26T07:27:51.365Z,2.42
2022-09-26T07:30:25.044Z,2.47
2022-09-26T07:33:04.275Z,2.15
2022-09-26T07:35:47.724Z,2.20
2022-09-26T07:38:15.107Z,2.10
2022-09-26T07:40:53.428Z,1.65
2022-09-26T07:43:45.454Z,1.83
2022-09-26T07:46:31.300Z,1.50
2022-09-26T07:49:17.903Z,1.73
2022-09-26T07:52:02.576Z,1.40
2022-09-26T07:54:42.879Z,1.60
2022-09-26T07:57:58.477Z,1.20
2022-09-26T08:00:39.539Z,1.77
2022-09-26T08:03:28.822Z,1.50
2022-09-26T08:06:02.248Z,1.55
2022-09-26T08:08:31.800Z,1.17
2022-09-26T08:11:03.418Z,1.23
2022-09-26T08:13:54.512Z,1.45
2022-09-26T08:16:40.921Z,1.25
2022-09-26T08:25:12.900Z,1.65
2022-09-26T08:27:58.827Z,1.73
2022-09-26T08:30:30.577Z,1.38
2022-09-26T08:33:02.515Z,1.30
2022-09-26T08:35:34.900Z,1.77
2022-09-26T08:38:17.777Z,1.80
2022-09-26T08:41:31.607Z,1.90
2022-09-26T08:44:29.393Z,1.45
2022-09-26T08:47:33.004Z,1.30
2022-09-26T08:50:20.361Z,1.27
2022-09-26T08:52:52.874Z,2.40
2022-09-26T08:55:26.145Z,1.25
2022-09-26T08:57:59.838Z,1.80
2022-09-26T09:00:32.602Z,4.93
2022-09-26T09:03:07.072Z,2.35
2022-09-26T09:08:23.952Z,1.60
2022-09-26T09:11:38.668Z,1.50
2022-09-26T09:14:44.350Z,1.10
2022-09-26T09:17:45.015Z,1.20
2022-09-26T09:20:58.056Z,0.93
2022-09-26T09:24:09.403Z,0.80
2022-09-26T09:30:20.395Z,0.70
2022-09-26T09:32:56.889Z,1.00
2022-09-26T09:35:41.046Z,0.98
2022-09-26T09:38:48.963Z,0.85
2022-09-26T09:44:10.252Z,0.40
2022-09-26T09:46:41.826Z,0.65
2022-09-26T09:49:08.702Z,0.60
2022-09-26T09:51:58.415Z,0.45
2022-09-26T09:54:50.769Z,0.50
2022-09-26T09:57:32.603Z,0.70
2022-09-26T10:00:23.644Z,0.73
2022-09-26T10:03:11.373Z,0.68
2022-09-26T10:05:44.565Z,0.63
2022-09-26T10:08:32.494Z,0.75
2022-09-26T10:11:32.711Z,0.70
2022-09-26T10:14:33.333Z,0.60
2022-09-26T10:17:09.524Z,0.47
2022-09-26T10:19:58.686Z,0.60
2022-09-26T10:22:35.089Z,0.70
2022-09-26T10:25:20.471Z,0.80
2022-09-26T10:27:56.013Z,0.98
2022-09-26T10:30:29.391Z,0.60
2022-09-26T10:33:04.559Z,0.70
2022-09-26T10:36:06.631Z,0.80
2022-09-26T10:39:11.048Z,0.90
2022-09-26T10:41:40.624Z,1.25
2022-09-26T10:44:22.014Z,1.30
2022-09-26T10:47:18.444Z,0.95
2022-09-26T10:50:17.597Z,1.00
2022-09-26T10:53:14.151Z,1.50
2022-09-26T10:55:58.226Z,2.33
2022-09-26T10:58:29.175Z,0.90
2022-09-26T11:01:03.359Z,1.70
2022-09-26T11:03:45.047Z,2.97
2022-09-26T11:09:34.164Z,1.38
2022-09-26T11:12:29.666Z,1.30
2022-09-26T11:15:13.605Z,1.23
2022-09-26T11:17:44.352Z,1.08
2022-09-26T11:20:51.159Z,1.10
2022-09-26T11:23:44.000Z,1.00
2022-09-26T11:26:17.425Z,1.30
2022-09-26T11:28:54.167Z,0.98
2022-09-26T11:31:28.819Z,1.00
2022-09-26T11:34:25.523Z,0.77
2022-09-26T11:37:03.216Z,1.00
2022-09-26T11:40:09.813Z,0.60
2022-09-26T11:43:07.942Z,1.00
2022-09-26T11:46:03.406Z,0.65
2022-09-26T11:49:26.563Z,1.25
2022-09-26T11:55:36.458Z,1.25
2022-09-26T11:58:23.202Z,0.60
2022-09-26T12:01:16.195Z,0.60
2022-09-26T12:04:01.260Z,1.08
2022-09-26T12:06:40.734Z,0.73
2022-09-26T12:09:33.393Z,0.43
2022-09-26T12:12:21.220Z,1.15
2022-09-26T12:15:03.056Z,1.38
2022-09-26T12:18:05.414Z,0.80
2022-09-26T12:21:09.750Z,2.53
2022-09-26T12:24:17.257Z,0.57
2022-09-26T12:26:59.174Z,0.60
2022-09-26T12:29:46.366Z,0.53
2022-09-26T12:32:15.697Z,0.52
2022-09-26T12:34:50.538Z,0.55
2022-09-26T12:40:10.349Z,0.70
2022-09-26T12:43:04.087Z,0.80
2022-09-26T12:45:53.207Z,0.80
2022-09-26T12:48:30.455Z,0.52
2022-09-26T12:51:15.679Z,0.63
2022-09-26T12:54:06.472Z,0.80
2022-09-26T12:56:33.215Z,0.40
2022-09-26T12:59:52.548Z,0.50
2022-09-26T13:02:43.676Z,0.60
2022-09-26T13:05:41.998Z,0.52
2022-09-26T13:08:21.009Z,0.60
2022-09-26T13:11:22.247Z,0.60
2022-09-26T13:14:38.801Z,1.00
2022-09-26T13:17:27.419Z,0.80
2022-09-26T13:20:18.114Z,0.70
2022-09-26T13:22:48.526Z,0.57
2022-09-26T13:25:18.197Z,0.77
2022-09-26T13:27:51.726Z,1.10
2022-09-26T13:30:25.461Z,0.80
2022-09-26T13:33:23.266Z,0.70
2022-09-26T13:35:57.551Z,0.77
2022-09-26T13:38:34.008Z,0.50
2022-09-26T13:41:12.482Z,0.73
2022-09-26T13:44:06.149Z,0.60
2022-09-26T13:47:12.554Z,0.65
2022-09-26T13:50:05.467Z,0.43
2022-09-26T13:52:37.774Z,0.50
2022-09-26T13:55:14.341Z,0.50
2022-09-26T13:58:16.052Z,0.82
2022-09-26T14:00:48.446Z,0.65
2022-09-26T14:03:15.809Z,0.55
2022-09-26T14:05:49.285Z,0.60
2022-09-26T14:08:43.837Z,0.70
2022-09-26T14:11:23.738Z,0.47
2022-09-26T14:14:16.056Z,0.50
2022-09-26T14:16:43.440Z,0.50
2022-09-26T14:19:15.442Z,0.55
2022-09-26T14:22:01.949Z,0.40
2022-09-26T14:24:33.274Z,0.50
2022-09-26T14:27:08.940Z,0.43
2022-09-26T14:29:48.635Z,0.70
2022-09-26T14:32:27.570Z,0.47
2022-09-26T14:34:59.672Z,0.50
2022-09-26T14:37:40.218Z,0.68
2022-09-26T14:52:01.722Z,0.47
2022-09-26T14:54:36.423Z,0.57
2022-09-26T14:57:21.348Z,0.60
2022-09-26T14:59:48.841Z,0.50
2022-09-26T15:02:30.428Z,0.50
2022-09-26T15:05:07.983Z,0.43
2022-09-26T15:07:51.235Z,0.63
2022-09-26T15:10:21.031Z,0.50
2022-09-26T15:13:03.634Z,0.60
2022-09-26T15:15:49.269Z,0.57
2022-09-26T15:18:56.716Z,0.43
2022-09-26T15:21:39.490Z,1.10
2022-09-26T15:24:29.127Z,0.40
2022-09-26T15:27:19.173Z,0.50
2022-09-26T15:30:13.406Z,0.60
2022-09-26T15:32:42.693Z,0.50
2022-09-26T15:35:13.699Z,0.90
2022-09-26T15:37:41.600Z,0.90
2022-09-26T15:40:20.761Z,0.90
2022-09-26T15:43:02.274Z,0.57
2022-09-26T15:45:49.793Z,0.60
2022-09-26T15:48:18.745Z,0.60
2022-09-26T15:51:02.059Z,0.70
2022-09-26T15:53:49.672Z,0.55
2022-09-26T15:56:47.561Z,0.65
2022-09-26T15:59:22.328Z,0.55
2022-09-26T16:07:37.520Z,0.60
2022-09-26T16:10:23.768Z,0.47
2022-09-26T16:12:50.736Z,0.50
2022-09-26T16:15:28.564Z,0.60
2022-09-26T16:17:56.771Z,0.60
2022-09-26T16:20:30.271Z,0.60
2022-09-26T16:23:05.115Z,0.30
2022-09-26T16:25:37.917Z,0.50
2022-09-26T16:28:14.110Z,0.60
2022-09-26T16:31:13.607Z,0.60
2022-09-26T16:33:40.586Z,0.70
2022-09-26T16:36:14.532Z,0.98
2022-09-26T16:39:20.324Z,0.90
2022-09-26T16:44:55.856Z,1.10
2022-09-26T16:47:44.447Z,0.75
2022-09-26T16:50:25.808Z,0.80
2022-09-26T16:52:54.823Z,0.50
2022-09-26T16:55:22.624Z,0.73
2022-09-26T16:58:01.705Z,0.80
2022-09-26T17:00:52.900Z,0.90
2022-09-26T17:03:30.738Z,0.70
2022-09-26T17:05:59.014Z,0.80
2022-09-26T17:08:28.411Z,1.15
2022-09-26T17:10:59.270Z,1.48
2022-09-26T17:13:32.154Z,1.20
2022-09-26T17:16:02.909Z,1.48
2022-09-26T17:18:31.651Z,3.38
2022-09-26T17:21:04.654Z,1.25
2022-09-26T17:23:40.658Z,6.00
2022-09-26T17:26:17.574Z,2.20
2022-09-26T17:28:46.951Z,1.98
2022-09-26T17:31:18.767Z,2.60
2022-09-26T17:33:48.519Z,4.50
2022-09-26T17:36:25.882Z,1.75
2022-09-26T17:38:58.554Z,0.60
2022-09-26T17:44:01.318Z,0.73
2022-09-26T17:46:30.541Z,2.97
2022-09-26T17:49:04.616Z,2.30
2022-09-26T17:51:32.473Z,2.35
2022-09-26T17:54:09.466Z,2.17
2022-09-26T17:56:36.279Z,5.72
2022-09-26T17:59:15.593Z,5.15
2022-09-26T18:01:44.700Z,2.60
2022-09-26T18:04:16.700Z,4.35
2022-09-26T18:06:48.034Z,2.20
2022-09-26T18:09:18.191Z,1.23
2022-09-26T18:11:54.918Z,2.63
2022-09-26T18:14:26.234Z,2.30
2022-09-26T18:16:52.980Z,1.65
2022-09-26T18:19:20.401Z,1.35
2022-09-26T18:21:53.796Z,2.03
2022-09-26T18:24:23.994Z,2.35
2022-09-26T18:27:02.727Z,1.20
2022-09-26T18:29:32.446Z,1.77
2022-09-26T18:32:00.506Z,1.10
2022-09-26T18:34:30.778Z,1.10
2022-09-26T18:36:59.444Z,1.02
2022-09-26T18:39:27.069Z,0.85
2022-09-26T18:42:01.483Z,1.20
2022-09-26T18:44:34.270Z,0.77
2022-09-26T18:47:05.086Z,1.20
2022-09-26T18:49:37.147Z,0.70
2022-09-26T18:52:11.161Z,0.60
2022-09-26T18:54:44.300Z,0.95
2022-09-26T18:57:35.644Z,0.95
2022-09-26T19:00:03.649Z,0.60
2022-09-26T19:02:37.605Z,1.10
2022-09-26T19:05:10.139Z,0.80
2022-09-26T19:07:36.921Z,1.02
2022-09-26T19:13:00.087Z,1.55
2022-09-26T19:15:28.142Z,0.65
2022-09-26T19:17:56.947Z,1.90
2022-09-26T19:20:23.711Z,1.20
2022-09-26T19:22:54.625Z,4.35
2022-09-26T19:25:46.121Z,1.35
2022-09-26T19:28:22.421Z,1.52
2022-09-26T19:30:51.706Z,2.30
2022-09-26T19:33:21.937Z,1.80
2022-09-26T19:35:48.810Z,1.08
2022-09-26T19:38:21.477Z,0.82
2022-09-26T19:43:16.299Z,0.85
2022-09-26T19:45:47.495Z,0.80
2022-09-26T19:48:19.150Z,0.80
2022-09-26T19:50:52.619Z,0.90
2022-09-26T19:53:21.748Z,0.70
2022-09-26T19:55:49.544Z,1.50
2022-09-26T19:58:24.384Z,1.13
2022-09-26T20:00:57.377Z,1.27
2022-09-26T20:03:39.802Z,1.10
2022-09-26T20:06:25.137Z,1.15
2022-09-26T20:08:58.926Z,1.30
2022-09-26T20:11:30.918Z,1.27
2022-09-26T20:14:16.220Z,1.70
2022-09-26T20:16:43.275Z,1.33
2022-09-26T20:19:19.124Z,1.50
2022-09-26T20:21:46.074Z,1.40
2022-09-26T20:24:17.818Z,1.85
2022-09-26T20:26:47.538Z,1.30
2022-09-26T20:29:15.771Z,1.10
2022-09-26T20:31:42.910Z,1.33
2022-09-26T20:34:10.822Z,1.00
2022-09-26T20:36:41.500Z,1.13
2022-09-26T20:39:14.829Z,1.10
2022-09-26T20:41:42.849Z,1.23
2022-09-26T20:44:24.448Z,0.90
2022-09-26T20:46:56.477Z,0.90
2022-09-26T20:49:45.394Z,1.23
2022-09-26T20:52:21.941Z,1.20
2022-09-26T20:54:49.081Z,1.17
2022-09-26T20:57:16.533Z,1.52
2022-09-26T20:59:49.101Z,1.20
2022-09-26T21:02:22.652Z,1.08
2022-09-26T21:05:02.492Z,0.77
2022-09-26T21:07:32.867Z,3.72
2022-09-26T21:10:32.253Z,3.60
2022-09-26T21:13:02.979Z,1.40
2022-09-26T21:15:44.102Z,1.38
2022-09-26T21:18:31.365Z,1.15
2022-09-26T21:21:04.692Z,1.00
2022-09-26T21:23:52.789Z,0.88
2022-09-26T21:26:31.170Z,0.95
2022-09-26T21:28:58.205Z,1.00
2022-09-26T21:31:34.560Z,0.80
2022-09-26T21:34:13.059Z,0.52
2022-09-26T21:36:40.430Z,0.50
2022-09-26T21:39:08.798Z,0.50
2022-09-26T21:41:48.888Z,0.57
2022-09-26T21:44:31.823Z,0.47
2022-09-26T21:49:30.815Z,0.60
2022-09-26T21:52:14.417Z,0.50
2022-09-26T21:54:44.605Z,0.40
2022-09-26T21:57:36.601Z,1.35
2022-09-26T22:00:09.303Z,0.60
2022-09-26T22:02:41.052Z,0.70
2022-09-26T22:05:08.950Z,0.65
2022-09-26T22:07:47.998Z,0.50
2022-09-26T22:10:17.982Z,0.45
2022-09-26T22:15:51.403Z,0.33
2022-09-26T22:18:32.432Z,0.63
2022-09-26T22:20:59.659Z,0.40
2022-09-26T22:23:26.435Z,0.80
2022-09-26T22:25:59.832Z,0.60
2022-09-26T22:28:30.058Z,0.52
2022-09-26T22:31:01.049Z,0.40
2022-09-26T22:33:34.028Z,0.43
2022-09-26T22:36:01.698Z,0.30
2022-09-26T22:38:30.510Z,0.40
2022-09-26T22:41:05.885Z,0.40
2022-09-26T22:46:33.645Z,0.30
2022-09-26T22:49:01.971Z,0.38
2022-09-26T22:51:31.414Z,0.35
2022-09-26T22:53:58.096Z,0.30
2022-09-26T22:56:30.339Z,0.30
2022-09-26T22:58:57.152Z,0.30
2022-09-26T23:01:29.309Z,0.20
2022-09-26T23:04:07.089Z,0.25
2022-09-26T23:06:39.415Z,0.30
2022-09-26T23:09:06.112Z,0.32
2022-09-26T23:11:37.125Z,0.30
2022-09-26T23:14:11.341Z,0.30
2022-09-26T23:16:40.435Z,0.20
2022-09-26T23:19:14.055Z,0.30
2022-09-26T23:22:20.198Z,0.30
2022-09-26T23:24:47.184Z,0.22
2022-09-26T23:27:26.123Z,0.30
2022-09-26T23:29:59.606Z,0.30
2022-09-26T23:32:52.602Z,0.20
2022-09-26T23:35:19.427Z,0.20
2022-09-26T23:40:41.434Z,0.43
2022-09-26T23:43:09.367Z,0.30
2022-09-26T23:45:40.942Z,0.30
2022-09-26T23:51:18.031Z,0.28
2022-09-26T23:53:53.264Z,0.30
2022-09-26T23:56:23.731Z,0.28
2022-09-26T23:58:50.382Z,0.30
